sensor_id;sensor_type;location;lat;lon;timestamp;temperature;humidity
23251;DHT22;11794;49.730;10.088;2022-08-19T00:01:33;21.20;99.90
23251;DHT22;11794;49.730;10.088;2022-08-19T00:04:02;21.20;99.90
23251;DHT22;11794;49.730;10.088;2022-08-19T00:06:29;21.10;99.90
23251;DHT22;11794;49.730;10.088;2022-08-19T00:08:56;21.10;99.90
23251;DHT22;11794;49.730;10.088;2022-08-19T00:11:22;20.90;99.90
23251;DHT22;11794;49.730;10.088;2022-08-19T00:13:48;20.90;99.90
23251;DHT22;11794;49.730;10.088;2022-08-19T00:16:16;20.80;99.90
23251;DHT22;11794;49.730;10.088;2022-08-19T00:18:43;20.80;99.90
23251;DHT22;11794;49.730;10.088;2022-08-19T00:21:09;20.80;99.90
23251;DHT22;11794;49.730;10.088;2022-08-19T00:23:35;20.80;99.90
23251;DHT22;11794;49.730;10.088;2022-08-19T00:26:03;20.80;99.90
23251;DHT22;11794;49.730;10.088;2022-08-19T00:28:29;20.80;99.90
23251;DHT22;11794;49.730;10.088;2022-08-19T00:30:55;20.80;99.90
23251;DHT22;11794;49.730;10.088;2022-08-19T00:33:21;20.90;99.90
23251;DHT22;11794;49.730;10.088;2022-08-19T00:35:46;20.70;99.90
23251;DHT22;11794;49.730;10.088;2022-08-19T00:38:12;20.70;99.90
23251;DHT22;11794;49.730;10.088;2022-08-19T00:40:38;20.60;99.90
23251;DHT22;11794;49.730;10.088;2022-08-19T00:43:09;20.60;99.90
23251;DHT22;11794;49.730;10.088;2022-08-19T00:45:35;20.60;99.90
23251;DHT22;11794;49.730;10.088;2022-08-19T00:48:01;20.60;99.90
23251;DHT22;11794;49.730;10.088;2022-08-19T00:50:32;20.50;99.90
23251;DHT22;11794;49.730;10.088;2022-08-19T00:52:58;20.40;99.90
23251;DHT22;11794;49.730;10.088;2022-08-19T00:55:26;20.40;99.90
23251;DHT22;11794;49.730;10.088;2022-08-19T00:58:04;20.40;99.90
23251;DHT22;11794;49.730;10.088;2022-08-19T01:00:31;20.40;99.90
23251;DHT22;11794;49.730;10.088;2022-08-19T01:03:02;20.50;99.90
23251;DHT22;11794;49.730;10.088;2022-08-19T01:05:29;20.50;99.90
23251;DHT22;11794;49.730;10.088;2022-08-19T01:07:56;20.50;99.90
23251;DHT22;11794;49.730;10.088;2022-08-19T01:10:27;20.50;99.90
23251;DHT22;11794;49.730;10.088;2022-08-19T01:12:55;20.50;99.90
23251;DHT22;11794;49.730;10.088;2022-08-19T01:15:28;20.40;99.90
23251;DHT22;11794;49.730;10.088;2022-08-19T01:17:55;20.40;99.90
23251;DHT22;11794;49.730;10.088;2022-08-19T01:20:22;20.30;99.90
23251;DHT22;11794;49.730;10.088;2022-08-19T01:22:54;20.30;99.90
23251;DHT22;11794;49.730;10.088;2022-08-19T01:25:24;20.30;99.90
23251;DHT22;11794;49.730;10.088;2022-08-19T01:27:52;20.30;99.90
23251;DHT22;11794;49.730;10.088;2022-08-19T01:30:32;20.20;99.90
23251;DHT22;11794;49.730;10.088;2022-08-19T01:32:58;20.20;99.90
23251;DHT22;11794;49.730;10.088;2022-08-19T01:35:27;20.20;99.90
23251;DHT22;11794;49.730;10.088;2022-08-19T01:37:57;20.20;99.90
23251;DHT22;11794;49.730;10.088;2022-08-19T01:40:26;20.20;99.90
23251;DHT22;11794;49.730;10.088;2022-08-19T01:42:53;20.20;99.90
23251;DHT22;11794;49.730;10.088;2022-08-19T01:45:20;20.10;99.90
23251;DHT22;11794;49.730;10.088;2022-08-19T01:47:46;20.10;99.90
23251;DHT22;11794;49.730;10.088;2022-08-19T01:50:12;20.10;99.90
23251;DHT22;11794;49.730;10.088;2022-08-19T01:52:40;20.00;99.90
23251;DHT22;11794;49.730;10.088;2022-08-19T01:55:09;19.90;99.90
23251;DHT22;11794;49.730;10.088;2022-08-19T01:57:36;19.90;99.90
23251;DHT22;11794;49.730;10.088;2022-08-19T02:00:07;19.90;99.90
23251;DHT22;11794;49.730;10.088;2022-08-19T02:02:33;20.00;99.90
23251;DHT22;11794;49.730;10.088;2022-08-19T02:04:59;20.00;99.90
23251;DHT22;11794;49.730;10.088;2022-08-19T02:07:24;20.10;99.90
23251;DHT22;11794;49.730;10.088;2022-08-19T02:09:50;20.10;99.90
23251;DHT22;11794;49.730;10.088;2022-08-19T02:12:15;20.10;99.90
23251;DHT22;11794;49.730;10.088;2022-08-19T02:14:42;20.20;99.90
23251;DHT22;11794;49.730;10.088;2022-08-19T02:17:08;20.10;99.90
23251;DHT22;11794;49.730;10.088;2022-08-19T02:19:33;20.10;99.90
23251;DHT22;11794;49.730;10.088;2022-08-19T02:21:59;20.10;99.90
23251;DHT22;11794;49.730;10.088;2022-08-19T02:24:26;20.10;99.90
23251;DHT22;11794;49.730;10.088;2022-08-19T02:26:52;20.20;99.90
23251;DHT22;11794;49.730;10.088;2022-08-19T02:29:18;20.10;99.90
23251;DHT22;11794;49.730;10.088;2022-08-19T02:31:44;20.20;99.90
23251;DHT22;11794;49.730;10.088;2022-08-19T02:34:09;20.20;99.90
23251;DHT22;11794;49.730;10.088;2022-08-19T02:36:35;20.10;99.90
23251;DHT22;11794;49.730;10.088;2022-08-19T02:39:01;20.00;99.90
23251;DHT22;11794;49.730;10.088;2022-08-19T02:41:30;20.00;99.90
23251;DHT22;11794;49.730;10.088;2022-08-19T02:43:57;19.90;99.90
23251;DHT22;11794;49.730;10.088;2022-08-19T02:46:27;20.00;99.90
23251;DHT22;11794;49.730;10.088;2022-08-19T02:48:55;20.00;99.90
23251;DHT22;11794;49.730;10.088;2022-08-19T02:51:30;20.00;99.90
23251;DHT22;11794;49.730;10.088;2022-08-19T02:53:56;20.00;99.90
23251;DHT22;11794;49.730;10.088;2022-08-19T02:56:22;20.00;99.90
23251;DHT22;11794;49.730;10.088;2022-08-19T02:58:49;19.90;99.90
23251;DHT22;11794;49.730;10.088;2022-08-19T03:01:30;19.80;99.90
23251;DHT22;11794;49.730;10.088;2022-08-19T03:03:57;19.70;99.90
23251;DHT22;11794;49.730;10.088;2022-08-19T03:06:23;19.70;99.90
23251;DHT22;11794;49.730;10.088;2022-08-19T03:08:49;19.60;99.90
23251;DHT22;11794;49.730;10.088;2022-08-19T03:11:28;19.60;99.90
23251;DHT22;11794;49.730;10.088;2022-08-19T03:13:55;19.70;99.90
23251;DHT22;11794;49.730;10.088;2022-08-19T03:16:22;19.70;99.90
23251;DHT22;11794;49.730;10.088;2022-08-19T03:18:49;19.70;99.90
23251;DHT22;11794;49.730;10.088;2022-08-19T03:21:17;19.70;99.90
23251;DHT22;11794;49.730;10.088;2022-08-19T03:23:43;19.60;99.90
23251;DHT22;11794;49.730;10.088;2022-08-19T03:26:09;19.60;99.90
23251;DHT22;11794;49.730;10.088;2022-08-19T03:28:35;19.60;99.90
23251;DHT22;11794;49.730;10.088;2022-08-19T03:31:10;19.60;99.90
23251;DHT22;11794;49.730;10.088;2022-08-19T03:33:36;19.70;99.90
23251;DHT22;11794;49.730;10.088;2022-08-19T03:36:07;19.70;99.90
23251;DHT22;11794;49.730;10.088;2022-08-19T03:38:38;19.70;99.90
23251;DHT22;11794;49.730;10.088;2022-08-19T03:41:06;19.60;99.90
23251;DHT22;11794;49.730;10.088;2022-08-19T03:43:34;19.60;99.90
23251;DHT22;11794;49.730;10.088;2022-08-19T03:46:15;19.60;99.90
23251;DHT22;11794;49.730;10.088;2022-08-19T03:48:42;19.60;99.90
23251;DHT22;11794;49.730;10.088;2022-08-19T03:51:16;19.60;99.90
23251;DHT22;11794;49.730;10.088;2022-08-19T03:53:42;19.50;99.90
23251;DHT22;11794;49.730;10.088;2022-08-19T03:56:09;19.50;99.90
23251;DHT22;11794;49.730;10.088;2022-08-19T03:58:35;19.50;99.90
23251;DHT22;11794;49.730;10.088;2022-08-19T04:01:10;19.50;99.90
23251;DHT22;11794;49.730;10.088;2022-08-19T04:03:37;19.50;99.90
23251;DHT22;11794;49.730;10.088;2022-08-19T04:06:14;19.40;99.90
23251;DHT22;11794;49.730;10.088;2022-08-19T04:08:44;19.40;99.90
23251;DHT22;11794;49.730;10.088;2022-08-19T04:11:12;19.50;99.90
23251;DHT22;11794;49.730;10.088;2022-08-19T04:13:38;19.40;99.90
23251;DHT22;11794;49.730;10.088;2022-08-19T04:16:05;19.40;99.90
23251;DHT22;11794;49.730;10.088;2022-08-19T04:18:35;19.50;99.90
23251;DHT22;11794;49.730;10.088;2022-08-19T04:21:00;19.60;99.90
23251;DHT22;11794;49.730;10.088;2022-08-19T04:23:26;19.60;99.90
23251;DHT22;11794;49.730;10.088;2022-08-19T04:25:54;19.70;99.90
23251;DHT22;11794;49.730;10.088;2022-08-19T04:28:19;19.70;99.90
23251;DHT22;11794;49.730;10.088;2022-08-19T04:30:49;19.70;99.90
23251;DHT22;11794;49.730;10.088;2022-08-19T04:33:16;19.70;99.90
23251;DHT22;11794;49.730;10.088;2022-08-19T04:35:45;19.80;99.90
23251;DHT22;11794;49.730;10.088;2022-08-19T04:38:12;19.80;99.90
23251;DHT22;11794;49.730;10.088;2022-08-19T04:40:43;19.90;99.90
23251;DHT22;11794;49.730;10.088;2022-08-19T04:43:28;20.00;99.90
23251;DHT22;11794;49.730;10.088;2022-08-19T04:45:54;20.00;99.90
23251;DHT22;11794;49.730;10.088;2022-08-19T04:48:20;20.00;99.90
23251;DHT22;11794;49.730;10.088;2022-08-19T04:50:52;20.00;99.90
23251;DHT22;11794;49.730;10.088;2022-08-19T04:53:32;20.00;99.90
23251;DHT22;11794;49.730;10.088;2022-08-19T04:55:59;20.10;99.90
23251;DHT22;11794;49.730;10.088;2022-08-19T04:58:27;20.10;99.90
23251;DHT22;11794;49.730;10.088;2022-08-19T05:00:54;20.00;99.90
23251;DHT22;11794;49.730;10.088;2022-08-19T05:03:20;20.10;99.90
23251;DHT22;11794;49.730;10.088;2022-08-19T05:05:48;20.10;99.90
23251;DHT22;11794;49.730;10.088;2022-08-19T05:08:16;20.20;99.90
23251;DHT22;11794;49.730;10.088;2022-08-19T05:10:51;20.20;99.90
23251;DHT22;11794;49.730;10.088;2022-08-19T05:13:18;20.20;99.90
23251;DHT22;11794;49.730;10.088;2022-08-19T05:15:45;20.20;99.90
23251;DHT22;11794;49.730;10.088;2022-08-19T05:18:18;20.30;99.90
23251;DHT22;11794;49.730;10.088;2022-08-19T05:21:12;20.30;99.90
23251;DHT22;11794;49.730;10.088;2022-08-19T05:23:56;20.40;99.90
23251;DHT22;11794;49.730;10.088;2022-08-19T05:26:23;20.50;99.90
23251;DHT22;11794;49.730;10.088;2022-08-19T05:28:52;20.50;99.90
23251;DHT22;11794;49.730;10.088;2022-08-19T05:31:17;20.70;99.90
23251;DHT22;11794;49.730;10.088;2022-08-19T05:33:43;20.80;99.90
23251;DHT22;11794;49.730;10.088;2022-08-19T05:36:09;20.80;99.90
23251;DHT22;11794;49.730;10.088;2022-08-19T05:38:34;20.80;99.90
23251;DHT22;11794;49.730;10.088;2022-08-19T05:41:09;20.80;99.90
23251;DHT22;11794;49.730;10.088;2022-08-19T05:43:35;20.80;99.90
23251;DHT22;11794;49.730;10.088;2022-08-19T05:46:01;20.80;99.90
23251;DHT22;11794;49.730;10.088;2022-08-19T05:48:27;20.80;99.90
23251;DHT22;11794;49.730;10.088;2022-08-19T05:50:53;20.90;99.90
23251;DHT22;11794;49.730;10.088;2022-08-19T05:53:18;20.90;99.90
23251;DHT22;11794;49.730;10.088;2022-08-19T05:55:44;20.90;99.90
23251;DHT22;11794;49.730;10.088;2022-08-19T05:58:10;20.90;99.90
23251;DHT22;11794;49.730;10.088;2022-08-19T06:00:37;20.90;99.90
23251;DHT22;11794;49.730;10.088;2022-08-19T06:03:03;20.90;99.90
23251;DHT22;11794;49.730;10.088;2022-08-19T06:05:30;20.80;99.90
23251;DHT22;11794;49.730;10.088;2022-08-19T06:07:56;20.80;99.90
23251;DHT22;11794;49.730;10.088;2022-08-19T06:10:22;20.80;99.90
23251;DHT22;11794;49.730;10.088;2022-08-19T06:12:48;20.80;99.90
23251;DHT22;11794;49.730;10.088;2022-08-19T06:15:14;20.80;99.90
23251;DHT22;11794;49.730;10.088;2022-08-19T06:17:41;20.80;99.90
23251;DHT22;11794;49.730;10.088;2022-08-19T06:20:10;20.80;99.90
23251;DHT22;11794;49.730;10.088;2022-08-19T06:22:40;20.80;99.90
23251;DHT22;11794;49.730;10.088;2022-08-19T06:25:06;20.70;99.90
23251;DHT22;11794;49.730;10.088;2022-08-19T06:27:32;20.70;99.90
23251;DHT22;11794;49.730;10.088;2022-08-19T06:29:58;20.70;99.90
23251;DHT22;11794;49.730;10.088;2022-08-19T06:32:24;20.70;99.90
23251;DHT22;11794;49.730;10.088;2022-08-19T06:34:49;20.60;99.90
23251;DHT22;11794;49.730;10.088;2022-08-19T06:37:16;20.70;99.90
23251;DHT22;11794;49.730;10.088;2022-08-19T06:39:43;20.70;99.90
23251;DHT22;11794;49.730;10.088;2022-08-19T06:42:11;20.70;99.90
23251;DHT22;11794;49.730;10.088;2022-08-19T06:44:39;20.70;99.90
23251;DHT22;11794;49.730;10.088;2022-08-19T06:47:08;20.70;99.90
23251;DHT22;11794;49.730;10.088;2022-08-19T06:49:35;20.70;99.90
23251;DHT22;11794;49.730;10.088;2022-08-19T06:52:01;20.80;99.90
23251;DHT22;11794;49.730;10.088;2022-08-19T06:54:27;20.70;99.90
23251;DHT22;11794;49.730;10.088;2022-08-19T06:56:55;20.80;99.90
23251;DHT22;11794;49.730;10.088;2022-08-19T06:59:23;20.90;99.90
23251;DHT22;11794;49.730;10.088;2022-08-19T07:01:54;20.90;99.90
23251;DHT22;11794;49.730;10.088;2022-08-19T07:04:22;20.90;99.90
23251;DHT22;11794;49.730;10.088;2022-08-19T07:06:49;21.00;99.90
23251;DHT22;11794;49.730;10.088;2022-08-19T07:09:17;21.10;99.90
23251;DHT22;11794;49.730;10.088;2022-08-19T07:11:45;21.10;99.90
23251;DHT22;11794;49.730;10.088;2022-08-19T07:14:11;21.20;99.90
23251;DHT22;11794;49.730;10.088;2022-08-19T07:16:36;21.20;99.90
23251;DHT22;11794;49.730;10.088;2022-08-19T07:19:02;21.30;99.90
23251;DHT22;11794;49.730;10.088;2022-08-19T07:21:28;21.30;99.90
23251;DHT22;11794;49.730;10.088;2022-08-19T07:23:55;21.30;99.90
23251;DHT22;11794;49.730;10.088;2022-08-19T07:26:24;21.50;99.90
23251;DHT22;11794;49.730;10.088;2022-08-19T07:28:50;21.50;99.90
23251;DHT22;11794;49.730;10.088;2022-08-19T07:31:19;21.50;99.90
23251;DHT22;11794;49.730;10.088;2022-08-19T07:33:46;21.40;99.90
23251;DHT22;11794;49.730;10.088;2022-08-19T07:36:15;21.40;99.90
23251;DHT22;11794;49.730;10.088;2022-08-19T07:38:44;21.40;99.90
23251;DHT22;11794;49.730;10.088;2022-08-19T07:41:17;21.40;99.90
23251;DHT22;11794;49.730;10.088;2022-08-19T07:43:43;21.40;99.90
23251;DHT22;11794;49.730;10.088;2022-08-19T07:46:10;21.50;99.90
23251;DHT22;11794;49.730;10.088;2022-08-19T07:48:35;21.50;99.90
23251;DHT22;11794;49.730;10.088;2022-08-19T07:51:04;21.60;99.90
23251;DHT22;11794;49.730;10.088;2022-08-19T07:53:31;21.80;99.90
23251;DHT22;11794;49.730;10.088;2022-08-19T07:55:59;21.80;99.90
23251;DHT22;11794;49.730;10.088;2022-08-19T07:58:28;21.90;99.90
23251;DHT22;11794;49.730;10.088;2022-08-19T08:00:54;22.00;99.90
23251;DHT22;11794;49.730;10.088;2022-08-19T08:03:21;22.00;99.90
23251;DHT22;11794;49.730;10.088;2022-08-19T08:06:07;22.00;99.90
23251;DHT22;11794;49.730;10.088;2022-08-19T08:08:51;22.00;99.90
23251;DHT22;11794;49.730;10.088;2022-08-19T08:11:35;21.90;99.90
23251;DHT22;11794;49.730;10.088;2022-08-19T08:14:01;21.90;99.90
23251;DHT22;11794;49.730;10.088;2022-08-19T08:16:28;21.90;99.90
23251;DHT22;11794;49.730;10.088;2022-08-19T08:18:56;21.90;99.90
23251;DHT22;11794;49.730;10.088;2022-08-19T08:21:22;21.90;99.90
23251;DHT22;11794;49.730;10.088;2022-08-19T08:23:47;21.90;99.90
23251;DHT22;11794;49.730;10.088;2022-08-19T08:26:13;21.90;99.90
23251;DHT22;11794;49.730;10.088;2022-08-19T08:28:40;21.90;99.90
23251;DHT22;11794;49.730;10.088;2022-08-19T08:31:05;21.80;99.90
23251;DHT22;11794;49.730;10.088;2022-08-19T08:33:31;21.60;99.90
23251;DHT22;11794;49.730;10.088;2022-08-19T08:35:56;21.60;99.90
23251;DHT22;11794;49.730;10.088;2022-08-19T08:38:22;21.60;99.90
23251;DHT22;11794;49.730;10.088;2022-08-19T08:40:52;21.50;99.90
23251;DHT22;11794;49.730;10.088;2022-08-19T08:43:34;21.50;99.90
23251;DHT22;11794;49.730;10.088;2022-08-19T08:51:38;21.90;99.90
23251;DHT22;11794;49.730;10.088;2022-08-19T08:54:07;21.90;99.90
23251;DHT22;11794;49.730;10.088;2022-08-19T08:56:33;22.00;99.90
23251;DHT22;11794;49.730;10.088;2022-08-19T08:59:10;22.10;99.90
23251;DHT22;11794;49.730;10.088;2022-08-19T09:01:38;22.00;99.90
23251;DHT22;11794;49.730;10.088;2022-08-19T09:04:05;22.00;99.90
23251;DHT22;11794;49.730;10.088;2022-08-19T09:06:40;21.90;99.90
23251;DHT22;11794;49.730;10.088;2022-08-19T09:09:21;21.90;99.90
23251;DHT22;11794;49.730;10.088;2022-08-19T09:12:00;22.00;99.90
23251;DHT22;11794;49.730;10.088;2022-08-19T09:17:03;21.80;99.90
23251;DHT22;11794;49.730;10.088;2022-08-19T09:19:34;21.80;99.90
23251;DHT22;11794;49.730;10.088;2022-08-19T09:22:00;21.80;99.90
23251;DHT22;11794;49.730;10.088;2022-08-19T09:24:26;21.70;99.90
23251;DHT22;11794;49.730;10.088;2022-08-19T09:26:51;21.70;99.90
23251;DHT22;11794;49.730;10.088;2022-08-19T09:29:17;21.90;99.90
23251;DHT22;11794;49.730;10.088;2022-08-19T09:31:43;22.10;99.90
23251;DHT22;11794;49.730;10.088;2022-08-19T09:34:08;22.30;99.90
23251;DHT22;11794;49.730;10.088;2022-08-19T09:36:34;22.50;99.90
23251;DHT22;11794;49.730;10.088;2022-08-19T09:39:05;22.70;99.90
23251;DHT22;11794;49.730;10.088;2022-08-19T09:41:31;22.90;99.90
23251;DHT22;11794;49.730;10.088;2022-08-19T09:43:58;23.00;99.90
23251;DHT22;11794;49.730;10.088;2022-08-19T09:46:25;23.10;99.90
23251;DHT22;11794;49.730;10.088;2022-08-19T09:48:52;23.20;99.90
23251;DHT22;11794;49.730;10.088;2022-08-19T09:51:26;23.40;99.90
23251;DHT22;11794;49.730;10.088;2022-08-19T09:53:54;23.50;99.90
23251;DHT22;11794;49.730;10.088;2022-08-19T09:56:21;23.70;99.90
23251;DHT22;11794;49.730;10.088;2022-08-19T09:58:47;23.70;99.90
23251;DHT22;11794;49.730;10.088;2022-08-19T10:01:18;23.70;99.90
23251;DHT22;11794;49.730;10.088;2022-08-19T10:03:48;23.60;99.90
23251;DHT22;11794;49.730;10.088;2022-08-19T10:06:14;23.60;99.90
23251;DHT22;11794;49.730;10.088;2022-08-19T10:08:40;23.40;99.90
23251;DHT22;11794;49.730;10.088;2022-08-19T10:11:05;23.40;99.90
23251;DHT22;11794;49.730;10.088;2022-08-19T10:13:32;23.40;99.90
23251;DHT22;11794;49.730;10.088;2022-08-19T10:16:08;23.40;99.90
23251;DHT22;11794;49.730;10.088;2022-08-19T10:18:36;23.60;99.90
23251;DHT22;11794;49.730;10.088;2022-08-19T10:21:08;23.60;99.90
23251;DHT22;11794;49.730;10.088;2022-08-19T10:23:38;23.80;99.90
23251;DHT22;11794;49.730;10.088;2022-08-19T10:26:05;24.00;99.90
23251;DHT22;11794;49.730;10.088;2022-08-19T10:28:32;24.10;99.90
23251;DHT22;11794;49.730;10.088;2022-08-19T10:30:57;24.00;99.90
23251;DHT22;11794;49.730;10.088;2022-08-19T10:33:24;24.00;99.90
23251;DHT22;11794;49.730;10.088;2022-08-19T10:36:06;24.00;99.90
23251;DHT22;11794;49.730;10.088;2022-08-19T10:38:33;24.00;99.90
23251;DHT22;11794;49.730;10.088;2022-08-19T10:41:25;24.00;99.90
23251;DHT22;11794;49.730;10.088;2022-08-19T10:43:56;24.20;99.90
23251;DHT22;11794;49.730;10.088;2022-08-19T10:46:24;24.30;99.90
23251;DHT22;11794;49.730;10.088;2022-08-19T10:48:51;24.40;99.90
23251;DHT22;11794;49.730;10.088;2022-08-19T10:51:17;24.60;99.90
23251;DHT22;11794;49.730;10.088;2022-08-19T10:54:01;24.70;99.90
23251;DHT22;11794;49.730;10.088;2022-08-19T10:56:28;24.80;99.90
23251;DHT22;11794;49.730;10.088;2022-08-19T10:59:13;24.80;99.90
23251;DHT22;11794;49.730;10.088;2022-08-19T11:01:41;24.70;99.90
23251;DHT22;11794;49.730;10.088;2022-08-19T11:04:07;24.70;99.90
23251;DHT22;11794;49.730;10.088;2022-08-19T11:06:36;24.70;99.90
23251;DHT22;11794;49.730;10.088;2022-08-19T11:09:02;24.60;99.90
23251;DHT22;11794;49.730;10.088;2022-08-19T11:11:28;24.50;99.90
23251;DHT22;11794;49.730;10.088;2022-08-19T11:13:54;24.50;99.90
23251;DHT22;11794;49.730;10.088;2022-08-19T11:16:22;24.50;99.90
23251;DHT22;11794;49.730;10.088;2022-08-19T11:18:54;24.60;99.90
23251;DHT22;11794;49.730;10.088;2022-08-19T11:21:35;24.80;99.90
23251;DHT22;11794;49.730;10.088;2022-08-19T11:24:04;24.80;99.90
23251;DHT22;11794;49.730;10.088;2022-08-19T11:26:32;24.90;99.90
23251;DHT22;11794;49.730;10.088;2022-08-19T11:28:58;24.80;99.90
23251;DHT22;11794;49.730;10.088;2022-08-19T11:31:27;24.70;99.90
23251;DHT22;11794;49.730;10.088;2022-08-19T11:33:55;24.60;99.90
23251;DHT22;11794;49.730;10.088;2022-08-19T11:36:21;24.70;99.90
23251;DHT22;11794;49.730;10.088;2022-08-19T11:38:50;24.80;99.90
23251;DHT22;11794;49.730;10.088;2022-08-19T11:41:17;25.00;99.90
23251;DHT22;11794;49.730;10.088;2022-08-19T11:43:43;25.30;99.90
23251;DHT22;11794;49.730;10.088;2022-08-19T11:46:11;25.60;99.90
23251;DHT22;11794;49.730;10.088;2022-08-19T11:48:37;25.60;99.90
23251;DHT22;11794;49.730;10.088;2022-08-19T11:51:09;25.70;99.90
23251;DHT22;11794;49.730;10.088;2022-08-19T11:53:36;25.70;99.90
23251;DHT22;11794;49.730;10.088;2022-08-19T11:56:02;25.60;99.90
23251;DHT22;11794;49.730;10.088;2022-08-19T11:58:28;25.30;99.90
23251;DHT22;11794;49.730;10.088;2022-08-19T12:00:54;25.10;99.90
23251;DHT22;11794;49.730;10.088;2022-08-19T12:03:20;24.90;99.90
23251;DHT22;11794;49.730;10.088;2022-08-19T12:05:46;24.70;99.90
23251;DHT22;11794;49.730;10.088;2022-08-19T12:08:12;24.50;99.90
23251;DHT22;11794;49.730;10.088;2022-08-19T12:10:39;24.40;99.90
23251;DHT22;11794;49.730;10.088;2022-08-19T12:13:05;24.40;99.90
23251;DHT22;11794;49.730;10.088;2022-08-19T12:15:39;24.50;99.90
23251;DHT22;11794;49.730;10.088;2022-08-19T12:18:07;24.70;99.90
23251;DHT22;11794;49.730;10.088;2022-08-19T12:20:38;24.80;99.90
23251;DHT22;11794;49.730;10.088;2022-08-19T12:23:05;24.80;99.90
23251;DHT22;11794;49.730;10.088;2022-08-19T12:25:31;24.80;99.90
23251;DHT22;11794;49.730;10.088;2022-08-19T12:27:57;24.80;99.90
23251;DHT22;11794;49.730;10.088;2022-08-19T12:30:23;24.80;99.90
23251;DHT22;11794;49.730;10.088;2022-08-19T12:32:48;24.80;99.90
23251;DHT22;11794;49.730;10.088;2022-08-19T12:35:16;24.70;99.90
23251;DHT22;11794;49.730;10.088;2022-08-19T12:37:41;24.60;99.90
23251;DHT22;11794;49.730;10.088;2022-08-19T12:40:10;24.60;99.90
23251;DHT22;11794;49.730;10.088;2022-08-19T12:42:38;24.50;99.90
23251;DHT22;11794;49.730;10.088;2022-08-19T12:45:08;24.50;99.90
23251;DHT22;11794;49.730;10.088;2022-08-19T12:47:34;24.40;99.90
23251;DHT22;11794;49.730;10.088;2022-08-19T12:50:00;24.30;99.90
23251;DHT22;11794;49.730;10.088;2022-08-19T12:52:26;24.20;99.90
23251;DHT22;11794;49.730;10.088;2022-08-19T12:54:54;24.10;99.90
23251;DHT22;11794;49.730;10.088;2022-08-19T12:57:20;24.10;99.90
23251;DHT22;11794;49.730;10.088;2022-08-19T12:59:45;24.00;99.90
23251;DHT22;11794;49.730;10.088;2022-08-19T13:02:11;23.90;99.90
23251;DHT22;11794;49.730;10.088;2022-08-19T13:04:37;23.80;99.90
23251;DHT22;11794;49.730;10.088;2022-08-19T13:07:06;23.80;99.90
23251;DHT22;11794;49.730;10.088;2022-08-19T13:09:31;23.80;99.90
23251;DHT22;11794;49.730;10.088;2022-08-19T13:11:57;23.70;99.90
23251;DHT22;11794;49.730;10.088;2022-08-19T13:14:22;23.60;99.90
23251;DHT22;11794;49.730;10.088;2022-08-19T13:16:48;23.50;99.90
23251;DHT22;11794;49.730;10.088;2022-08-19T13:19:13;23.40;99.90
23251;DHT22;11794;49.730;10.088;2022-08-19T13:21:39;23.50;99.90
23251;DHT22;11794;49.730;10.088;2022-08-19T13:24:05;23.60;99.90
23251;DHT22;11794;49.730;10.088;2022-08-19T13:26:31;23.70;99.90
23251;DHT22;11794;49.730;10.088;2022-08-19T13:28:57;23.70;99.90
23251;DHT22;11794;49.730;10.088;2022-08-19T13:31:42;23.70;99.90
23251;DHT22;11794;49.730;10.088;2022-08-19T13:34:30;23.60;99.90
23251;DHT22;11794;49.730;10.088;2022-08-19T13:36:58;23.60;99.90
23251;DHT22;11794;49.730;10.088;2022-08-19T13:39:24;23.50;99.90
23251;DHT22;11794;49.730;10.088;2022-08-19T13:41:49;23.60;99.90
23251;DHT22;11794;49.730;10.088;2022-08-19T13:44:17;23.60;99.90
23251;DHT22;11794;49.730;10.088;2022-08-19T13:46:46;23.70;99.90
23251;DHT22;11794;49.730;10.088;2022-08-19T13:49:13;23.70;99.90
23251;DHT22;11794;49.730;10.088;2022-08-19T13:51:41;23.80;99.90
23251;DHT22;11794;49.730;10.088;2022-08-19T13:54:07;23.80;99.90
23251;DHT22;11794;49.730;10.088;2022-08-19T13:56:34;23.70;99.90
23251;DHT22;11794;49.730;10.088;2022-08-19T13:59:00;23.40;99.90
23251;DHT22;11794;49.730;10.088;2022-08-19T14:01:26;23.30;99.90
23251;DHT22;11794;49.730;10.088;2022-08-19T14:03:52;23.10;99.90
23251;DHT22;11794;49.730;10.088;2022-08-19T14:06:18;23.00;99.90
23251;DHT22;11794;49.730;10.088;2022-08-19T14:08:44;22.90;99.90
23251;DHT22;11794;49.730;10.088;2022-08-19T14:11:10;22.80;99.90
23251;DHT22;11794;49.730;10.088;2022-08-19T14:13:36;22.80;99.90
23251;DHT22;11794;49.730;10.088;2022-08-19T14:16:12;22.60;99.90
23251;DHT22;11794;49.730;10.088;2022-08-19T14:18:39;22.60;99.90
23251;DHT22;11794;49.730;10.088;2022-08-19T14:21:05;22.50;99.90
23251;DHT22;11794;49.730;10.088;2022-08-19T14:23:33;22.60;99.90
23251;DHT22;11794;49.730;10.088;2022-08-19T14:26:08;22.60;99.90
23251;DHT22;11794;49.730;10.088;2022-08-19T14:28:34;22.70;99.90
23251;DHT22;11794;49.730;10.088;2022-08-19T14:31:00;22.80;99.90
23251;DHT22;11794;49.730;10.088;2022-08-19T14:33:25;22.90;99.90
23251;DHT22;11794;49.730;10.088;2022-08-19T14:35:51;23.00;99.90
23251;DHT22;11794;49.730;10.088;2022-08-19T14:38:18;23.10;99.90
23251;DHT22;11794;49.730;10.088;2022-08-19T14:40:44;23.10;99.90
23251;DHT22;11794;49.730;10.088;2022-08-19T14:43:11;23.30;99.90
23251;DHT22;11794;49.730;10.088;2022-08-19T14:45:37;23.50;99.90
23251;DHT22;11794;49.730;10.088;2022-08-19T14:48:05;23.50;99.90
23251;DHT22;11794;49.730;10.088;2022-08-19T14:50:32;23.60;99.90
23251;DHT22;11794;49.730;10.088;2022-08-19T14:53:00;23.60;99.90
23251;DHT22;11794;49.730;10.088;2022-08-19T14:55:26;23.70;99.90
23251;DHT22;11794;49.730;10.088;2022-08-19T14:57:51;23.70;99.90
23251;DHT22;11794;49.730;10.088;2022-08-19T15:00:17;23.60;99.90
23251;DHT22;11794;49.730;10.088;2022-08-19T15:02:43;23.70;99.90
23251;DHT22;11794;49.730;10.088;2022-08-19T15:05:11;23.70;99.90
23251;DHT22;11794;49.730;10.088;2022-08-19T15:07:38;23.70;99.90
23251;DHT22;11794;49.730;10.088;2022-08-19T15:10:05;23.80;99.90
23251;DHT22;11794;49.730;10.088;2022-08-19T15:12:33;23.90;99.90
23251;DHT22;11794;49.730;10.088;2022-08-19T15:14:59;23.70;99.90
23251;DHT22;11794;49.730;10.088;2022-08-19T15:17:25;23.80;99.90
23251;DHT22;11794;49.730;10.088;2022-08-19T15:19:50;23.90;99.90
23251;DHT22;11794;49.730;10.088;2022-08-19T15:22:16;23.70;99.90
23251;DHT22;11794;49.730;10.088;2022-08-19T15:24:42;23.70;99.90
23251;DHT22;11794;49.730;10.088;2022-08-19T15:27:11;23.70;99.90
23251;DHT22;11794;49.730;10.088;2022-08-19T15:29:38;23.90;99.90